Time;durP1;ratioP1;P1;durP2;ratioP2;P2;SDS_P1;SDS_P2;PMS_P1;PMS_P2;Temp;Humidity;BMP_temperature;BMP_pressure;BME280_temperature;BME280_humidity;BME280_pressure;Samples;Min_cycle;Max_cycle;Signal;HPM_P1;HPM_P2
2022/11/17 00:00:51;;;;;;;5.22;1.27;;;;;;;25.73;40.60;101506.84;4213556;28;20036;-76
2022/11/17 00:02:52;;;;;;;5.78;0.90;;;;;;;25.66;40.32;101489.56;4207925;28;20093;-74
2022/11/17 00:04:53;;;;;;;4.80;1.10;;;;;;;25.64;40.44;101496.59;4196691;28;20036;-75
2022/11/17 00:06:58;;;;;;;5.47;0.90;;;;;;;25.66;40.32;101500.78;4196446;28;20375;-75
2022/11/17 00:09:00;;;;;;;6.32;1.17;;;;;;;25.68;40.47;101506.91;4196829;28;20037;-76
2022/11/17 00:11:02;;;;;;;4.47;0.90;;;;;;;25.72;40.06;101510.78;4210115;28;20032;-72
2022/11/17 00:15:23;;;;;;;3.60;0.90;;;;;;;25.71;40.37;101492.31;4197959;28;20105;-74
2022/11/17 00:17:24;;;;;;;2.95;1.13;;;;;;;25.60;40.20;101483.16;4200629;28;20101;-74
2022/11/17 00:21:46;;;;;;;5.43;1.20;;;;;;;25.70;39.81;101504.63;4196528;28;20090;-74
2022/11/17 00:23:48;;;;;;;2.00;1.00;;;;;;;25.69;39.92;101504.94;4196639;28;20090;-74
2022/11/17 00:25:49;;;;;;;2.70;1.00;;;;;;;25.61;40.03;101484.00;4196476;28;20078;-74
2022/11/17 00:27:51;;;;;;;4.10;1.25;;;;;;;25.70;39.94;101512.19;4196941;28;20093;-74
2022/11/17 00:29:55;;;;;;;2.95;0.90;;;;;;;25.69;40.11;101511.38;4196554;28;20101;-74
2022/11/17 00:34:22;;;;;;;2.15;0.90;;;;;;;25.65;39.81;101510.31;4198016;28;20125;-74
2022/11/17 00:36:25;;;;;;;2.85;1.13;;;;;;;25.70;39.97;101515.00;4196983;28;20086;-73
2022/11/17 00:38:26;;;;;;;5.82;1.20;;;;;;;25.68;39.73;101523.72;4196965;28;20048;-75
2022/11/17 00:40:28;;;;;;;1.92;1.10;;;;;;;25.62;39.61;101510.91;4196506;28;20488;-75
2022/11/17 00:42:29;;;;;;;1.25;1.10;;;;;;;25.59;39.51;101503.09;4198160;28;20032;-74
2022/11/17 00:44:31;;;;;;;5.05;1.25;;;;;;;25.55;39.80;101500.06;4200404;28;20090;-75
2022/11/17 00:46:34;;;;;;;4.40;1.30;;;;;;;25.66;39.67;101513.94;4199771;28;20033;-75
2022/11/17 00:48:35;;;;;;;3.75;1.30;;;;;;;25.58;39.67;101501.44;4199878;28;20468;-75
2022/11/17 00:50:37;;;;;;;2.22;1.20;;;;;;;25.43;39.90;101465.19;4200724;28;20082;-75
2022/11/17 00:52:38;;;;;;;1.05;0.98;;;;;;;25.56;39.75;101490.50;4199943;28;20090;-75
2022/11/17 00:54:39;;;;;;;3.38;1.13;;;;;;;25.63;39.54;101506.97;4200406;28;20040;-74
2022/11/17 00:56:41;;;;;;;2.00;1.25;;;;;;;25.61;39.45;101506.44;4199586;28;20097;-74
2022/11/17 00:58:48;;;;;;;3.40;1.20;;;;;;;25.51;39.57;101498.16;4199682;28;20094;-75
2022/11/17 01:00:49;;;;;;;1.48;1.00;;;;;;;25.62;39.36;101527.72;4199799;28;20032;-75
2022/11/17 01:02:51;;;;;;;3.22;1.30;;;;;;;25.49;39.62;101500.44;4199634;28;20048;-75
2022/11/17 01:04:52;;;;;;;2.58;1.15;;;;;;;25.64;39.49;101524.63;4199807;28;20044;-75
2022/11/17 01:06:54;;;;;;;2.00;1.40;;;;;;;25.60;39.50;101519.59;4199810;28;20048;-75
2022/11/17 01:08:58;;;;;;;1.25;1.10;;;;;;;25.63;39.29;101528.56;4199613;28;20044;-75
2022/11/17 01:11:11;;;;;;;1.38;1.10;;;;;;;25.61;39.52;101526.03;4200440;28;20458;-75
2022/11/17 01:13:16;;;;;;;1.80;0.98;;;;;;;25.63;39.42;101535.00;4199621;28;20479;-75
2022/11/17 01:15:20;;;;;;;1.50;1.02;;;;;;;25.61;39.55;101500.81;4199630;28;20028;-74
2022/11/17 01:17:21;;;;;;;2.03;1.10;;;;;;;25.61;39.37;101503.63;4199338;28;20036;-74
2022/11/17 01:19:23;;;;;;;1.45;1.00;;;;;;;25.64;39.21;101507.81;4199071;28;20044;-75
2022/11/17 01:21:26;;;;;;;1.23;1.13;;;;;;;25.60;39.54;101496.34;4199605;28;20044;-75
2022/11/17 01:23:27;;;;;;;3.17;1.13;;;;;;;25.63;39.36;101501.38;4199326;28;20106;-75
2022/11/17 01:25:30;;;;;;;1.65;1.10;;;;;;;25.53;39.18;101498.69;4199248;28;20090;-75
2022/11/17 01:27:31;;;;;;;2.92;1.25;;;;;;;25.27;39.45;101470.16;4199432;28;20040;-75
2022/11/17 01:29:35;;;;;;;1.80;1.25;;;;;;;25.59;39.38;101529.16;4199110;28;20090;-75
2022/11/17 01:31:39;;;;;;;2.30;1.03;;;;;;;25.62;39.47;101538.94;4198933;28;20070;-75
2022/11/17 01:33:41;;;;;;;1.25;1.00;;;;;;;25.62;39.25;101536.16;4199217;28;20269;-75
2022/11/17 01:35:42;;;;;;;2.10;1.10;;;;;;;25.62;39.13;101538.94;4199191;28;20032;-75
2022/11/17 01:37:46;;;;;;;1.15;1.05;;;;;;;25.61;39.44;101542.84;4198868;28;20488;-75
2022/11/17 01:39:48;;;;;;;1.88;1.42;;;;;;;25.59;39.24;101539.53;4206670;28;20471;-74
2022/11/17 01:41:51;;;;;;;2.00;1.10;;;;;;;25.62;39.37;101544.56;4215980;28;20074;-75
2022/11/17 01:44:17;;;;;;;2.28;1.10;;;;;;;25.56;39.36;101540.94;4213313;28;20093;-75
2022/11/17 01:46:29;;;;;;;1.83;1.20;;;;;;;25.38;39.54;101515.66;4215683;28;20714;-75
2022/11/17 01:48:30;;;;;;;2.00;1.13;;;;;;;25.64;39.17;101570.31;4213730;28;20036;-72
2022/11/17 01:50:34;;;;;;;1.30;1.10;;;;;;;25.62;39.31;101555.75;4214483;28;20513;-71
2022/11/17 01:52:37;;;;;;;1.70;1.08;;;;;;;25.54;39.26;101548.00;4213385;28;20044;-72
2022/11/17 01:54:42;;;;;;;1.75;1.10;;;;;;;25.48;39.15;101532.38;4214426;28;20608;-72
2022/11/17 01:56:50;;;;;;;3.13;1.42;;;;;;;25.62;38.97;101543.72;4217659;28;20035;-71
2022/11/17 01:59:08;;;;;;;2.08;1.40;;;;;;;25.51;39.00;101526.16;4213501;28;20040;-73
2022/11/17 02:01:09;;;;;;;2.17;1.35;;;;;;;25.62;39.37;101544.56;4215023;28;20097;-72
2022/11/17 02:03:12;;;;;;;4.65;1.48;;;;;;;25.62;39.12;101538.94;4208402;28;20566;-72
2022/11/17 02:05:34;;;;;;;3.67;1.25;;;;;;;25.59;39.09;101533.94;4214365;28;20020;-73
2022/11/17 02:07:39;;;;;;;2.33;1.45;;;;;;;25.49;39.20;101517.25;4215251;28;20048;-72
2022/11/17 02:09:42;;;;;;;4.20;1.33;;;;;;;25.59;39.23;101542.34;4208443;28;20116;-73
2022/11/17 02:11:48;;;;;;;20.05;2.53;;;;;;;25.52;39.28;101539.03;4206592;28;20095;-71
2022/11/17 02:13:53;;;;;;;7.70;1.30;;;;;;;25.59;39.25;101539.53;4207162;28;20089;-71
2022/11/17 02:15:55;;;;;;;10.75;2.67;;;;;;;25.62;39.38;101533.34;4213964;28;20043;-69
2022/11/17 02:17:58;;;;;;;5.07;1.45;;;;;;;25.58;39.40;101521.06;4215991;28;20043;-70
2022/11/17 02:20:18;;;;;;;4.72;1.40;;;;;;;25.63;39.33;101528.56;4201182;28;20028;-69
2022/11/17 02:22:47;;;;;;;4.05;1.40;;;;;;;25.61;39.37;101548.47;4208734;28;20036;-72
2022/11/17 02:25:21;;;;;;;24.33;2.47;;;;;;;25.55;39.46;101528.06;4188765;28;20178;-73
2022/11/17 02:27:35;;;;;;;9.35;1.85;;;;;;;25.62;39.61;101533.34;4215454;28;20039;-69
2022/11/17 02:29:45;;;;;;;6.45;1.48;;;;;;;25.66;39.26;101527.94;4214929;28;20040;-71
2022/11/17 02:32:08;;;;;;;5.32;1.60;;;;;;;25.63;39.20;101528.56;4215025;28;20044;-70
2022/11/17 02:34:28;;;;;;;3.90;1.50;;;;;;;25.63;39.33;101535.00;4201250;28;20440;-70
2022/11/17 02:36:38;;;;;;;2.60;1.20;;;;;;;25.51;39.24;101514.97;4214525;28;20036;-71
2022/11/17 02:38:48;;;;;;;2.50;1.48;;;;;;;25.63;39.29;101535.00;4205152;28;20475;-69
2022/11/17 02:40:59;;;;;;;3.50;1.25;;;;;;;25.62;39.19;101526.91;4208634;28;20035;-70
2022/11/17 02:46:10;;;;;;;2.50;1.35;;;;;;;25.62;39.25;101533.34;4212310;28;20085;-68
2022/11/17 02:48:18;;;;;;;3.65;1.80;;;;;;;25.57;39.12;101508.19;4213147;28;20483;-67
2022/11/17 02:50:23;;;;;;;3.60;1.35;;;;;;;25.63;39.08;101512.59;4209154;28;20040;-67
2022/11/17 02:52:26;;;;;;;7.20;1.60;;;;;;;25.64;39.03;101519.03;4212616;28;20113;-68
2022/11/17 02:54:30;;;;;;;4.00;1.60;;;;;;;25.64;39.12;101519.03;4213812;28;20094;-69
2022/11/17 02:56:31;;;;;;;1.95;1.40;;;;;;;25.63;38.93;101518.19;4210263;28;20161;-68
2022/11/17 02:58:35;;;;;;;4.50;1.67;;;;;;;25.61;39.02;101503.63;4210420;28;20024;-68
2022/11/17 03:00:52;;;;;;;6.10;1.83;;;;;;;25.61;39.13;101509.22;4211051;28;20081;-69
2022/11/17 03:03:15;;;;;;;3.38;1.38;;;;;;;25.63;39.01;101501.38;4212563;28;20044;-68
2022/11/17 03:05:45;;;;;;;4.07;1.48;;;;;;;25.58;39.23;101495.84;4213230;28;20094;-68
2022/11/17 03:08:16;;;;;;;3.85;1.40;;;;;;;25.61;39.17;101492.41;4212246;28;20047;-69
2022/11/17 03:10:31;;;;;;;3.10;1.50;;;;;;;25.63;39.11;101495.75;4211005;28;20060;-69
2022/11/17 03:12:35;;;;;;;2.92;1.77;;;;;;;25.63;39.08;101490.16;4212720;28;20073;-69
2022/11/17 03:14:51;;;;;;;4.78;1.63;;;;;;;25.62;39.11;101494.09;4213130;28;20544;-69
2022/11/17 03:16:53;;;;;;;6.20;1.33;;;;;;;25.63;38.85;101472.50;4212526;28;20116;-68
2022/11/17 03:19:11;;;;;;;2.53;1.48;;;;;;;25.62;39.17;101476.47;4204263;28;20126;-69
2022/11/17 03:21:18;;;;;;;2.05;1.23;;;;;;;25.61;38.93;101470.00;4212963;28;20048;-68
2022/11/17 03:23:29;;;;;;;3.67;1.48;;;;;;;25.50;39.20;101446.06;4213678;28;20090;-69
2022/11/17 03:25:33;;;;;;;2.53;1.48;;;;;;;25.61;39.20;101453.16;4210369;28;20089;-68
2022/11/17 03:27:41;;;;;;;4.28;1.50;;;;;;;25.60;39.01;101441.13;4210798;28;20109;-71
2022/11/17 03:29:49;;;;;;;1.85;1.52;;;;;;;25.59;39.23;101438.66;4213223;28;20036;-70
2022/11/17 03:31:57;;;;;;;3.35;1.40;;;;;;;25.57;38.98;101426.91;4214178;28;20434;-69
2022/11/17 03:34:00;;;;;;;1.50;1.40;;;;;;;25.58;38.97;101421.00;4212075;28;20040;-68
2022/11/17 03:36:12;;;;;;;3.55;1.45;;;;;;;25.58;39.07;101420.16;4203090;28;20105;-68
2022/11/17 03:38:17;;;;;;;3.53;1.77;;;;;;;25.50;38.93;101406.81;4214639;28;20094;-69
2022/11/17 03:40:24;;;;;;;5.18;1.98;;;;;;;25.54;39.05;101419.09;4202933;28;20043;-68
2022/11/17 03:42:29;;;;;;;6.88;1.70;;;;;;;25.56;38.94;101417.66;4214076;28;20098;-68
2022/11/17 03:44:36;;;;;;;4.18;1.80;;;;;;;25.56;39.29;101416.81;4199150;28;20056;-70
2022/11/17 03:46:41;;;;;;;4.80;1.77;;;;;;;25.54;38.91;101424.69;4213185;28;20348;-68
2022/11/17 03:49:21;;;;;;;3.80;1.50;;;;;;;25.54;39.07;101430.31;4214418;28;20044;-68
2022/11/17 03:51:27;;;;;;;4.30;1.60;;;;;;;25.41;38.87;101398.25;4192876;28;20093;-68
2022/11/17 03:53:29;;;;;;;4.15;1.85;;;;;;;25.56;39.01;101422.41;4214119;28;20035;-68
2022/11/17 03:55:55;;;;;;;3.63;1.60;;;;;;;25.54;39.17;101431.13;4214974;28;20078;-69
2022/11/17 03:58:05;;;;;;;5.30;1.98;;;;;;;25.57;39.17;101424.94;4214464;28;20413;-68
2022/11/17 04:00:13;;;;;;;4.85;2.17;;;;;;;25.57;39.15;101430.53;4215286;28;20023;-68
2022/11/17 04:02:18;;;;;;;6.35;1.80;;;;;;;25.56;38.94;101423.25;4214833;28;20102;-68
2022/11/17 04:04:21;;;;;;;4.97;1.90;;;;;;;25.55;39.17;101432.78;4204670;28;20044;-68
2022/11/17 04:06:22;;;;;;;3.20;1.60;;;;;;;25.57;38.90;101429.72;4212880;28;20085;-67
2022/11/17 04:08:28;;;;;;;4.03;1.73;;;;;;;25.51;39.15;101419.69;4212751;28;20074;-68
2022/11/17 04:15:54;;;;;;;3.90;1.70;;;;;;;25.56;39.03;101416.81;4214287;28;20105;-68
2022/11/17 04:17:32;;;;;;;3.65;1.60;;;;;;;25.56;39.29;101405.59;4213422;28;20066;-69
2022/11/17 04:19:34;;;;;;;3.05;1.88;;;;;;;25.59;39.08;101410.63;4212701;28;20419;-68
2022/11/17 04:21:37;;;;;;;1.77;1.48;;;;;;;25.47;38.99;101385.00;4214338;28;20105;-68
2022/11/17 04:23:39;;;;;;;4.57;1.50;;;;;;;25.56;39.23;101400.00;4211523;28;20110;-69
2022/11/17 04:30:29;;;;;;;2.60;1.73;;;;;;;25.59;39.09;101399.41;4203562;28;20443;-68
2022/11/17 04:32:31;;;;;;;1.70;1.60;;;;;;;25.58;39.09;101392.97;4213763;28;20090;-68
2022/11/17 04:34:32;;;;;;;2.80;1.50;;;;;;;25.58;39.19;101408.97;4212341;28;20093;-69
2022/11/17 04:36:36;;;;;;;2.22;1.75;;;;;;;25.57;39.09;101413.72;4214034;28;20097;-69
2022/11/17 04:38:57;;;;;;;3.95;2.00;;;;;;;25.56;39.19;101405.59;4213489;28;20097;-69
2022/11/17 04:43:23;;;;;;;3.42;1.42;;;;;;;25.61;39.13;101405.53;4206088;28;20081;-68
2022/11/17 04:45:27;;;;;;;3.83;1.60;;;;;;;25.60;39.36;101412.28;4213667;28;20081;-69
2022/11/17 04:47:29;;;;;;;3.33;1.75;;;;;;;25.56;39.03;101405.59;4204078;28;20036;-68
2022/11/17 04:49:31;;;;;;;5.28;1.55;;;;;;;25.57;39.18;101396.09;4209329;28;20121;-69
2022/11/17 04:51:33;;;;;;;3.00;1.40;;;;;;;25.60;39.31;101403.88;4214032;28;20117;-68
2022/11/17 04:53:35;;;;;;;4.32;1.70;;;;;;;25.60;38.91;101417.88;4211833;28;20093;-68
2022/11/17 04:55:36;;;;;;;2.08;1.88;;;;;;;25.24;39.32;101348.31;4214392;28;20036;-69
2022/11/17 04:57:40;;;;;;;2.22;1.77;;;;;;;25.58;39.38;101395.78;4210666;28;20041;-68
2022/11/17 04:59:41;;;;;;;2.10;1.65;;;;;;;25.60;39.32;101401.06;4211063;28;20475;-67
2022/11/17 05:01:43;;;;;;;4.13;1.63;;;;;;;25.59;39.46;101396.59;4214238;28;20097;-68
2022/11/17 05:03:59;;;;;;;2.85;1.50;;;;;;;25.58;39.33;101404.19;4213415;28;20044;-68
2022/11/17 05:06:00;;;;;;;2.10;1.90;;;;;;;25.61;39.27;101413.94;4212437;28;20040;-68
2022/11/17 05:08:01;;;;;;;1.90;1.40;;;;;;;25.61;39.43;101413.94;4212859;28;20056;-67
2022/11/17 05:10:03;;;;;;;3.10;1.65;;;;;;;25.62;39.31;101415.63;4213243;28;20036;-68
2022/11/17 05:14:25;;;;;;;2.33;1.88;;;;;;;25.63;39.25;101416.47;4215447;28;20093;-68
2022/11/17 05:18:52;;;;;;;5.03;1.45;;;;;;;25.51;39.36;101392.50;4214460;28;20441;-69
2022/11/17 05:20:53;;;;;;;3.10;1.73;;;;;;;25.58;39.14;101409.78;4213449;28;20036;-68
2022/11/17 05:25:14;;;;;;;1.77;1.67;;;;;;;25.64;39.41;101404.94;4196373;28;20083;-68
2022/11/17 05:27:15;;;;;;;2.72;1.50;;;;;;;25.64;39.49;101401.31;4198190;28;20036;-67
2022/11/17 05:29:19;;;;;;;2.97;1.60;;;;;;;25.63;39.49;101406.09;4213211;28;20044;-68
2022/11/17 05:31:24;;;;;;;1.90;1.80;;;;;;;25.54;39.26;101385.47;4217130;28;20078;-68
2022/11/17 05:33:25;;;;;;;;;;;;;;;25.63;39.56;101396.84;4210021;28;20044;-68
2022/11/17 05:35:26;;;;;;;5.68;2.47;;;;;;;25.70;39.00;101389.69;4214115;28;19916;-68
2022/11/17 05:37:27;;;;;;;3.67;1.50;;;;;;;25.69;39.13;101388.03;4205985;28;20496;-68
2022/11/17 05:39:29;;;;;;;1.55;1.40;;;;;;;25.68;39.19;101379.94;4213206;28;20032;-68
2022/11/17 05:41:30;;;;;;;1.73;1.63;;;;;;;25.64;39.22;101374.09;4216134;28;20475;-69
2022/11/17 05:43:32;;;;;;;2.47;1.70;;;;;;;25.48;39.15;101353.06;4214864;28;20040;-69
2022/11/17 05:45:33;;;;;;;2.75;1.77;;;;;;;25.62;39.19;101370.78;4216281;28;20032;-68
2022/11/17 05:47:34;;;;;;;2.13;1.92;;;;;;;25.66;39.27;101376.59;4216264;28;20040;-69
2022/11/17 05:49:36;;;;;;;3.47;1.88;;;;;;;25.64;39.19;101368.50;4213813;28;20992;-68
2022/11/17 05:51:37;;;;;;;1.73;1.63;;;;;;;25.55;39.22;101361.91;4215665;28;20497;-68
2022/11/17 05:53:39;;;;;;;2.10;1.80;;;;;;;25.65;39.26;101372.97;4206015;28;20114;-68
2022/11/17 05:55:45;;;;;;;4.00;1.63;;;;;;;25.51;38.75;101347.66;4207155;28;20089;-68
2022/11/17 05:57:51;;;;;;;2.00;1.80;;;;;;;25.62;39.04;101367.16;4215762;28;20040;-68
2022/11/17 06:00:03;;;;;;;1.77;1.67;;;;;;;25.64;39.12;101376.91;4208491;28;20039;-69
2022/11/17 06:02:14;;;;;;;1.70;1.60;;;;;;;25.53;38.83;101350.19;4214265;28;20112;-69
2022/11/17 06:04:18;;;;;;;4.07;1.80;;;;;;;25.61;39.07;101363.50;4215487;28;20093;-69
2022/11/17 06:06:20;;;;;;;4.80;1.67;;;;;;;25.62;39.07;101362.38;4212559;28;20105;-69
2022/11/17 06:08:22;;;;;;;1.95;1.58;;;;;;;25.64;39.00;101368.50;4208983;28;20086;-68
2022/11/17 06:10:23;;;;;;;2.22;1.70;;;;;;;25.63;38.84;101366.84;4215329;28;20044;-69
2022/11/17 06:12:25;;;;;;;2.13;1.70;;;;;;;25.64;38.72;101367.66;4215453;28;20101;-69
2022/11/17 06:14:26;;;;;;;3.40;2.08;;;;;;;25.51;38.82;101335.63;4215454;28;20094;-68
2022/11/17 06:16:32;;;;;;;1.73;1.38;;;;;;;25.49;39.02;101332.31;4216330;28;20441;-68
2022/11/17 06:18:43;;;;;;;1.63;1.40;;;;;;;25.47;38.81;101326.97;4213301;28;20425;-68
2022/11/17 06:20:48;;;;;;;2.15;1.50;;;;;;;25.49;38.85;101321.09;4215061;28;20411;-69
2022/11/17 06:22:54;;;;;;;2.15;1.33;;;;;;;25.63;38.79;101333.22;4198297;28;20098;-69
2022/11/17 06:25:00;;;;;;;2.08;1.90;;;;;;;25.38;38.85;101294.34;4229127;28;20117;-69
2022/11/17 06:27:01;;;;;;;1.60;1.50;;;;;;;25.57;38.53;101317.63;4214631;28;20475;-68
2022/11/17 06:29:06;;;;;;;1.80;1.63;;;;;;;25.42;38.98;101298.22;4213702;28;20372;-68
2022/11/17 06:31:07;;;;;;;;;;;;;;;25.59;38.89;101330.19;4215483;28;20040;-70
2022/11/17 06:33:12;;;;;;;1.52;1.42;;;;;;;25.66;38.47;101321.41;4213787;28;19928;-68
2022/11/17 06:35:15;;;;;;;1.60;1.50;;;;;;;25.65;38.63;101318.88;4213344;28;20603;-69
2022/11/17 06:37:16;;;;;;;1.63;1.42;;;;;;;25.63;38.56;101326.78;4214005;28;20043;-70
2022/11/17 06:39:18;;;;;;;1.75;1.40;;;;;;;25.51;38.65;101304.81;4214925;28;20065;-70
2022/11/17 06:41:19;;;;;;;2.50;1.83;;;;;;;25.35;38.47;101282.63;4215010;28;20101;-69
2022/11/17 06:43:26;;;;;;;1.75;1.48;;;;;;;25.37;38.68;101292.69;4213835;28;20036;-69
2022/11/17 06:45:28;;;;;;;1.60;1.50;;;;;;;25.59;38.68;101332.16;4215696;28;20540;-69
2022/11/17 06:47:29;;;;;;;1.80;1.65;;;;;;;25.56;38.67;101327.97;4215489;28;20040;-68
2022/11/17 06:49:33;;;;;;;1.85;1.60;;;;;;;25.54;38.52;101321.84;4213563;28;20449;-69
2022/11/17 06:51:35;;;;;;;1.70;1.60;;;;;;;25.45;38.60;101304.06;4202337;28;20040;-67
2022/11/17 06:53:39;;;;;;;2.13;1.70;;;;;;;25.58;38.85;101319.28;4209648;28;20040;-67
2022/11/17 06:55:43;;;;;;;1.55;1.45;;;;;;;25.57;38.60;101323.22;4213092;28;20376;-67
2022/11/17 06:57:44;;;;;;;1.55;1.45;;;;;;;25.58;38.47;101325.72;4212361;28;20032;-67
2022/11/17 06:59:46;;;;;;;2.88;1.48;;;;;;;25.60;38.37;101328.19;4213558;28;20048;-67
2022/11/17 07:01:47;;;;;;;1.70;1.60;;;;;;;25.59;38.52;101320.94;4212744;28;20105;-67
2022/11/17 07:03:48;;;;;;;1.50;1.40;;;;;;;25.56;38.57;101325.16;4212334;28;20229;-67
2022/11/17 07:05:50;;;;;;;2.40;1.73;;;;;;;25.50;38.70;101319.97;4215046;28;20101;-67
2022/11/17 07:07:54;;;;;;;1.63;1.45;;;;;;;25.56;38.50;101333.56;4213396;28;20048;-67
2022/11/17 07:09:58;;;;;;;1.70;1.60;;;;;;;25.51;38.55;101314.03;4214277;28;20047;-68
2022/11/17 07:12:00;;;;;;;1.60;1.50;;;;;;;25.57;38.57;101326.84;4214475;28;20284;-68
2022/11/17 07:14:01;;;;;;;1.70;1.50;;;;;;;25.58;38.29;101324.88;4214245;28;20147;-66
2022/11/17 07:16:08;;;;;;;1.80;1.50;;;;;;;25.57;38.42;101329.66;4213212;28;20048;-66
2022/11/17 07:18:09;;;;;;;1.40;1.20;;;;;;;25.58;38.49;101324.88;4211609;28;20429;-67
2022/11/17 07:20:11;;;;;;;2.25;1.60;;;;;;;25.57;38.50;101324.06;4215177;28;20429;-67
2022/11/17 07:22:12;;;;;;;1.50;1.40;;;;;;;25.57;38.53;101312.00;4213206;28;20044;-67
2022/11/17 07:24:14;;;;;;;1.80;1.65;;;;;;;25.57;38.57;101318.44;4214508;28;20044;-68
2022/11/17 07:26:15;;;;;;;2.47;1.55;;;;;;;25.41;38.19;101291.78;4214424;28;20036;-67
2022/11/17 07:28:17;;;;;;;1.17;1.05;;;;;;;25.56;38.25;101327.13;4213101;28;20488;-68
2022/11/17 07:30:19;;;;;;;1.48;1.38;;;;;;;25.57;38.24;101318.44;4213020;28;20085;-68
2022/11/17 07:32:20;;;;;;;1.73;1.63;;;;;;;25.50;38.34;101301.16;4212839;28;20040;-67
2022/11/17 07:34:22;;;;;;;1.58;1.42;;;;;;;25.55;38.38;101308.66;4212150;28;20429;-67
2022/11/17 07:36:23;;;;;;;1.85;1.63;;;;;;;25.56;38.26;101310.31;4212993;28;20106;-67
2022/11/17 07:38:24;;;;;;;1.88;1.50;;;;;;;25.57;38.35;101317.63;4210522;28;20061;-68
2022/11/17 07:40:29;;;;;;;1.40;1.30;;;;;;;25.58;38.63;101324.88;4212879;28;20052;-67
2022/11/17 07:42:31;;;;;;;1.65;1.33;;;;;;;25.58;38.36;101327.69;4213178;28;20040;-67
2022/11/17 07:44:35;;;;;;;1.98;1.50;;;;;;;25.57;38.24;101328.84;4213512;28;20040;-67
2022/11/17 07:46:36;;;;;;;1.60;1.50;;;;;;;25.58;38.50;101328.53;4213109;28;20044;-68
2022/11/17 07:48:39;;;;;;;1.40;1.27;;;;;;;25.59;38.23;101332.16;4212194;28;20074;-67
2022/11/17 07:50:40;;;;;;;1.40;1.30;;;;;;;25.58;38.39;101324.88;4213930;28;20040;-69
2022/11/17 07:52:47;;;;;;;1.88;1.50;;;;;;;25.58;38.46;101324.88;4212471;28;20035;-67
2022/11/17 07:54:48;;;;;;;1.80;1.70;;;;;;;25.58;38.42;101324.88;4199289;28;20041;-67
2022/11/17 07:56:49;;;;;;;1.38;1.27;;;;;;;25.59;38.30;101329.34;4208326;28;20040;-68
2022/11/17 07:58:53;;;;;;;1.42;1.23;;;;;;;25.59;38.42;101332.16;4211263;28;20093;-69
2022/11/17 08:00:54;;;;;;;1.42;1.33;;;;;;;25.58;38.18;101330.50;4211505;28;20040;-67
2022/11/17 08:03:00;;;;;;;1.77;1.60;;;;;;;25.57;38.28;101323.22;4212891;28;20061;-68
2022/11/17 08:05:01;;;;;;;1.58;1.48;;;;;;;25.53;38.18;101308.16;4212807;28;20058;-67
2022/11/17 08:07:02;;;;;;;1.67;1.40;;;;;;;25.58;38.36;101319.28;4212845;28;20533;-67
2022/11/17 08:09:06;;;;;;;4.20;1.48;;;;;;;25.51;38.12;101310.41;4211331;28;20372;-67
2022/11/17 08:11:10;;;;;;;1.45;1.35;;;;;;;25.55;38.33;101319.88;4213798;28;20070;-68
2022/11/17 08:13:12;;;;;;;1.77;1.67;;;;;;;25.58;38.29;101325.72;4211497;28;20089;-68
2022/11/17 08:15:14;;;;;;;1.67;1.58;;;;;;;25.57;38.23;101326.03;4212028;28;20277;-67
2022/11/17 08:17:17;;;;;;;1.60;1.50;;;;;;;25.58;38.07;101336.09;4211170;28;20442;-68
2022/11/17 08:19:19;;;;;;;1.63;1.30;;;;;;;25.58;38.20;101331.31;4212155;28;20101;-68
2022/11/17 08:21:24;;;;;;;1.77;1.40;;;;;;;25.57;38.11;101329.66;4213020;28;20056;-67
2022/11/17 08:23:25;;;;;;;1.95;1.75;;;;;;;25.58;38.30;101330.50;4212399;28;20044;-68
2022/11/17 08:25:27;;;;;;;1.40;1.30;;;;;;;25.58;38.17;101325.72;4213541;28;20027;-68
2022/11/17 08:27:28;;;;;;;1.55;1.45;;;;;;;25.54;38.26;101321.84;4211118;28;20036;-67
2022/11/17 08:29:30;;;;;;;1.50;1.40;;;;;;;25.57;37.95;101331.63;4211503;28;20108;-67
2022/11/17 08:31:32;;;;;;;1.45;1.35;;;;;;;25.54;38.23;101323.81;4212493;28;20044;-67
2022/11/17 08:33:33;;;;;;;1.80;1.33;;;;;;;25.58;38.18;101336.94;4213546;28;20105;-67
2022/11/17 08:35:34;;;;;;;1.45;1.35;;;;;;;25.58;38.31;101336.09;4213951;28;20078;-67
2022/11/17 08:37:39;;;;;;;1.63;1.52;;;;;;;25.51;38.14;101318.81;4212489;28;20048;-67
2022/11/17 08:39:41;;;;;;;1.52;1.35;;;;;;;25.59;38.09;101332.16;4212368;28;20044;-67
2022/11/17 08:41:42;;;;;;;1.35;1.25;;;;;;;25.57;38.01;101335.25;4212475;28;20044;-67
2022/11/17 08:43:43;;;;;;;1.63;1.52;;;;;;;25.59;37.95;101329.34;4210978;28;20056;-67
2022/11/17 08:45:44;;;;;;;1.52;1.42;;;;;;;25.57;38.16;101332.47;4213751;28;20036;-67
2022/11/17 08:47:46;;;;;;;1.50;1.40;;;;;;;25.57;38.23;101332.47;4211551;28;20437;-67
2022/11/17 08:49:47;;;;;;;1.70;1.33;;;;;;;25.58;37.93;101336.09;4213011;28;20476;-68
2022/11/17 08:51:48;;;;;;;1.77;1.67;;;;;;;25.57;38.07;101334.44;4213853;28;20430;-67
2022/11/17 08:53:49;;;;;;;1.60;1.50;;;;;;;25.57;37.80;101338.06;4212367;28;20032;-67
2022/11/17 08:55:51;;;;;;;1.50;1.40;;;;;;;25.57;37.80;101334.44;4212986;28;20052;-67
2022/11/17 08:57:55;;;;;;;1.50;1.40;;;;;;;25.56;37.66;101335.53;4211423;28;20198;-68
2022/11/17 08:59:56;;;;;;;1.77;1.63;;;;;;;25.57;37.90;101340.03;4207525;28;20437;-67
2022/11/17 09:01:58;;;;;;;2.05;1.50;;;;;;;25.58;37.75;101336.09;4213692;28;20548;-67
2022/11/17 09:03:59;;;;;;;1.60;1.48;;;;;;;25.58;37.86;101336.09;4214173;28;20040;-67
2022/11/17 09:06:01;;;;;;;1.25;1.23;;;;;;;25.53;37.98;101327.78;4216072;28;20048;-67
2022/11/17 09:08:06;;;;;;;1.20;1.10;;;;;;;25.56;37.82;101338.34;4215586;28;20032;-67
2022/11/17 09:10:09;;;;;;;1.55;1.42;;;;;;;25.55;37.63;101339.50;4214909;28;20102;-67
2022/11/17 09:12:11;;;;;;;1.25;1.10;;;;;;;25.55;37.57;101336.69;4213896;28;20037;-67
2022/11/17 09:14:12;;;;;;;1.50;1.40;;;;;;;25.53;37.58;101350.19;4216377;28;20368;-67
2022/11/17 09:16:15;;;;;;;1.20;1.10;;;;;;;25.56;37.52;101349.56;4215140;28;20039;-67
2022/11/17 09:18:19;;;;;;;1.45;1.35;;;;;;;25.51;37.63;101353.28;4216093;28;20048;-67
2022/11/17 09:20:23;;;;;;;2.20;1.80;;;;;;;25.53;37.55;101356.63;4216759;28;20039;-67
2022/11/17 09:22:24;;;;;;;1.60;1.50;;;;;;;25.51;37.65;101356.06;4215522;28;20109;-67
2022/11/17 09:24:26;;;;;;;1.50;1.40;;;;;;;25.50;37.82;101351.59;4215964;28;20032;-67
2022/11/17 09:26:27;;;;;;;1.58;1.48;;;;;;;25.50;37.50;101354.41;4215337;28;20074;-67
2022/11/17 09:28:48;;;;;;;1.55;1.45;;;;;;;25.50;37.67;101367.59;4215333;28;20106;-68
2022/11/17 09:30:53;;;;;;;1.20;1.10;;;;;;;25.50;37.63;101359.19;4210932;28;20039;-67
2022/11/17 09:32:57;;;;;;;1.53;1.43;;;;;;;25.50;37.72;101356.38;4216121;28;20090;-67
2022/11/17 09:34:59;;;;;;;1.40;1.30;;;;;;;25.50;37.68;101356.38;4214834;28;20792;-67
2022/11/17 09:37:06;;;;;;;1.50;1.40;;;;;;;25.48;37.58;101356.69;4216609;28;20036;-68
2022/11/17 09:39:07;;;;;;;1.40;1.30;;;;;;;25.51;37.61;101361.66;4213621;28;20061;-67
2022/11/17 09:41:22;;;;;;;3.63;1.52;;;;;;;25.50;37.42;101367.59;4214256;28;20035;-67
2022/11/17 09:43:30;;;;;;;1.40;1.30;;;;;;;25.52;37.91;101359.69;4213859;28;20036;-67
2022/11/17 09:45:36;;;;;;;1.27;1.17;;;;;;;25.51;37.43;101353.28;4216628;28;20467;-67
2022/11/17 09:47:59;;;;;;;1.58;1.48;;;;;;;25.51;37.70;101358.03;4214662;28;20048;-67
2022/11/17 09:50:18;;;;;;;1.60;1.38;;;;;;;25.50;37.69;101362.81;4214817;28;20609;-67
2022/11/17 09:52:48;;;;;;;1.08;1.00;;;;;;;25.50;37.74;101362.00;4216546;28;20047;-67
2022/11/17 09:55:18;;;;;;;1.75;1.58;;;;;;;25.49;37.40;101372.38;4203316;28;20484;-67
2022/11/17 09:57:33;;;;;;;1.48;1.38;;;;;;;25.52;37.70;101368.09;4196773;28;20121;-67
2022/11/17 09:59:36;;;;;;;1.73;1.48;;;;;;;25.53;37.44;101367.00;4216047;28;20048;-67
2022/11/17 10:01:38;;;;;;;1.40;1.30;;;;;;;25.53;37.65;101367.00;4212974;28;20040;-67
2022/11/17 10:03:43;;;;;;;1.52;1.33;;;;;;;25.52;37.53;101365.31;4215503;28;20065;-68
2022/11/17 10:05:44;;;;;;;;;;;;;;;25.50;37.48;101367.59;4216686;28;20090;-67
2022/11/17 10:07:49;;;;;;;1.50;1.40;;;;;;;25.54;37.32;101366.69;4215451;28;19908;-67
2022/11/17 10:09:52;;;;;;;1.40;1.30;;;;;;;25.57;37.36;101373.66;4199291;28;20090;-68
2022/11/17 10:12:12;;;;;;;1.70;1.60;;;;;;;25.48;37.49;101365.09;4214524;28;20032;-68